createdAt,value
2019-05-18T00:00:50.799Z,14.87
2019-05-18T00:15:49.724Z,14.75
2019-05-18T00:30:51.673Z,14.28
2019-05-18T00:45:51.020Z,19.45
2019-05-18T01:00:56.967Z,15.45
2019-05-18T01:15:51.506Z,14.63
2019-05-18T01:30:49.893Z,18.05
2019-05-18T01:45:50.866Z,16.48
2019-05-18T02:00:52.799Z,14.30
2019-05-18T02:15:53.065Z,12.75
2019-05-18T02:30:51.593Z,12.23
2019-05-18T02:45:50.105Z,13.28
2019-05-18T03:00:53.928Z,21.15
2019-05-18T03:15:49.389Z,26.17
2019-05-18T03:30:49.344Z,30.17
2019-05-18T03:45:52.213Z,25.05
2019-05-18T04:00:51.152Z,34.65
2019-05-18T04:15:49.621Z,29.52
2019-05-18T04:30:51.547Z,26.73
2019-05-18T04:45:53.418Z,26.35
2019-05-18T05:00:51.381Z,33.92
2019-05-18T05:15:49.768Z,27.60
2019-05-18T05:30:49.671Z,34.95
2019-05-18T05:45:51.711Z,30.88
2019-05-18T06:00:51.620Z,35.35
2019-05-18T06:15:49.926Z,33.38
2019-05-18T06:30:49.859Z,34.85
2019-05-18T06:45:50.715Z,34.00
2019-05-18T07:00:54.979Z,29.82
2019-05-18T07:15:49.215Z,29.60
2019-05-18T07:30:49.110Z,27.80
2019-05-18T07:45:52.099Z,20.52
2019-05-18T08:00:51.536Z,21.87
2019-05-18T08:15:49.436Z,33.53
2019-05-18T08:30:55.416Z,34.20
2019-05-18T08:45:54.806Z,29.32
2019-05-18T09:00:55.217Z,30.97
2019-05-18T09:15:49.654Z,24.30
2019-05-18T09:30:55.568Z,28.17
2019-05-18T09:45:51.093Z,26.50
2019-05-18T10:00:49.432Z,22.37
2019-05-18T10:15:52.165Z,24.23
2019-05-18T10:30:49.857Z,26.10
2019-05-18T10:45:49.719Z,22.03
2019-05-18T11:00:51.243Z,17.87
2019-05-18T11:15:57.126Z,17.10
2019-05-18T11:30:49.131Z,18.53
2019-05-18T11:45:51.515Z,14.53
2019-05-18T12:00:49.950Z,12.07
2019-05-18T12:15:49.466Z,12.68
2019-05-18T12:30:49.297Z,15.70
2019-05-18T12:45:49.245Z,9.55
2019-05-18T13:00:50.691Z,5.30
2019-05-18T13:15:49.729Z,4.75
2019-05-18T13:30:50.213Z,5.83
2019-05-18T13:45:52.537Z,5.25
2019-05-18T14:00:49.437Z,5.15
2019-05-18T14:15:51.787Z,5.37
2019-05-18T14:30:49.744Z,4.72
2019-05-18T14:45:57.773Z,4.55
2019-05-18T15:00:49.752Z,7.25
2019-05-18T15:15:49.200Z,5.60
2019-05-18T15:30:49.972Z,5.90
2019-05-18T15:45:50.018Z,7.97
2019-05-18T16:00:49.451Z,8.18
2019-05-18T16:15:49.253Z,8.20
2019-05-18T16:30:49.214Z,8.18
2019-05-18T16:45:49.222Z,8.45
2019-05-18T17:00:49.688Z,8.08
2019-05-18T17:15:49.506Z,7.78
2019-05-18T17:30:49.448Z,6.70
2019-05-18T17:45:49.387Z,4.60
2019-05-18T18:00:49.449Z,5.22
2019-05-18T18:15:49.833Z,6.05
2019-05-18T18:30:49.767Z,7.33
2019-05-18T18:45:51.134Z,5.45
2019-05-18T19:00:49.605Z,8.73
2019-05-18T19:15:50.250Z,9.95
2019-05-18T19:30:50.339Z,8.28
2019-05-18T19:45:52.687Z,9.53
2019-05-18T20:00:55.528Z,12.53
2019-05-18T20:30:56.670Z,13.20
2019-05-18T20:45:57.215Z,12.43
2019-05-18T21:15:50.913Z,14.40
2019-05-18T21:30:49.792Z,16.40
2019-05-18T21:45:51.801Z,10.72
2019-05-18T22:00:50.353Z,12.50
2019-05-18T22:15:55.323Z,9.70
2019-05-18T22:30:49.228Z,10.90
2019-05-18T22:45:56.728Z,11.50
2019-05-18T23:00:58.184Z,10.80
2019-05-18T23:15:49.584Z,11.78
2019-05-18T23:30:57.488Z,16.40
2019-05-18T23:45:52.888Z,12.75
